Time;durP1;ratioP1;P1;durP2;ratioP2;P2;SDS_P1;SDS_P2;PMS_P1;PMS_P2;Temp;Humidity;BMP_temperature;BMP_pressure;BME280_temperature;BME280_humidity;BME280_pressure;Samples;Min_cycle;Max_cycle;Signal;HPM_P1;HPM_P2
2023/06/13 00:37:09;;;;;;;7.35;3.95;;;;;;;;;;6316327;22;20217;-90
2023/06/13 00:40:14;;;;;;;8.20;3.90;;;;;;;;;;6300395;22;20165;-90
2023/06/13 00:43:20;;;;;;;9.05;4.43;;;;;;;;;;6302061;22;20180;-88
2023/06/13 00:46:28;;;;;;;7.32;4.05;;;;;;;;;;6303181;22;20499;-89
2023/06/13 00:49:34;;;;;;;6.57;3.75;;;;;;;;;;6304288;22;20256;-92
2023/06/13 00:52:43;;;;;;;9.15;3.88;;;;;;;;;;6303392;22;20165;-89
2023/06/13 00:55:51;;;;;;;6.97;3.60;;;;;;;;;;6303103;22;20169;-90
2023/06/13 00:58:56;;;;;;;6.03;3.63;;;;;;;;;;6303020;22;20149;-92
2023/06/13 01:02:03;;;;;;;8.55;3.70;;;;;;;;;;6303443;22;20221;-90
2023/06/13 01:05:11;;;;;;;5.68;3.28;;;;;;;;;;6304191;22;20164;-91
2023/06/13 01:08:21;;;;;;;5.35;3.28;;;;;;;;;;6302090;22;20184;-90
2023/06/13 01:11:31;;;;;;;7.78;3.53;;;;;;;;;;6301867;22;20223;-89
2023/06/13 01:14:43;;;;;;;6.18;3.78;;;;;;;;;;6302351;22;20144;-89
2023/06/13 01:18:07;;;;;;;5.63;3.40;;;;;;;;;;6301551;22;20150;-90
2023/06/13 01:21:13;;;;;;;6.25;3.65;;;;;;;;;;6302273;22;20148;-90
2023/06/13 01:24:20;;;;;;;10.35;4.65;;;;;;;;;;6301090;22;20192;-90
2023/06/13 01:27:28;;;;;;;9.18;3.75;;;;;;;;;;6299212;22;20183;-89
2023/06/13 01:30:34;;;;;;;6.55;3.83;;;;;;;;;;6299660;22;20176;-87
2023/06/13 01:33:39;;;;;;;9.32;3.70;;;;;;;;;;6299632;22;20227;-93
2023/06/13 01:36:43;;;;;;;7.40;3.78;;;;;;;;;;6301140;22;20299;-90
2023/06/13 01:39:48;;;;;;;8.35;3.88;;;;;;;;;;6301774;22;20208;-90
2023/06/13 01:42:55;;;;;;;7.53;3.72;;;;;;;;;;6300340;22;20177;-89
2023/06/13 01:46:02;;;;;;;7.85;3.60;;;;;;;;;;6300202;22;20173;-89
2023/06/13 01:49:16;;;;;;;10.63;3.45;;;;;;;;;;6300163;22;20173;-91
2023/06/13 01:52:27;;;;;;;9.27;3.70;;;;;;;;;;6301585;22;20162;-89
2023/06/13 01:55:41;;;;;;;7.28;3.75;;;;;;;;;;6300546;22;20177;-90
2023/06/13 01:58:50;;;;;;;6.95;3.75;;;;;;;;;;6300797;22;20198;-90
2023/06/13 02:01:56;;;;;;;7.10;3.80;;;;;;;;;;6300225;22;20169;-88
2023/06/13 02:05:01;;;;;;;8.02;4.35;;;;;;;;;;6302753;22;20232;-91
2023/06/13 02:08:08;;;;;;;9.48;3.80;;;;;;;;;;6304124;22;20231;-90
2023/06/13 02:11:14;;;;;;;7.10;4.18;;;;;;;;;;6302948;22;20164;-89
2023/06/13 02:14:20;;;;;;;11.95;4.00;;;;;;;;;;6301924;22;20181;-88
2023/06/13 02:17:26;;;;;;;8.57;4.10;;;;;;;;;;6300623;22;20176;-89
2023/06/13 02:20:31;;;;;;;9.05;4.57;;;;;;;;;;6301399;22;20157;-90
2023/06/13 02:23:36;;;;;;;11.23;4.72;;;;;;;;;;6301397;22;20193;-89
2023/06/13 02:26:42;;;;;;;10.80;4.30;;;;;;;;;;6299096;22;20181;-90
2023/06/13 02:29:53;;;;;;;10.20;4.07;;;;;;;;;;6300113;22;20252;-89
2023/06/13 02:33:01;;;;;;;8.20;4.68;;;;;;;;;;6299798;22;20284;-90
2023/06/13 02:36:06;;;;;;;12.90;4.13;;;;;;;;;;6300760;22;20208;-91
2023/06/13 02:39:11;;;;;;;11.60;4.40;;;;;;;;;;6301912;22;20232;-91
2023/06/13 02:42:16;;;;;;;12.68;4.57;;;;;;;;;;6300656;22;20287;-89
2023/06/13 02:45:23;;;;;;;11.93;4.28;;;;;;;;;;6302379;22;20197;-88
2023/06/13 02:48:28;;;;;;;7.72;4.18;;;;;;;;;;6301490;22;20161;-89
2023/06/13 02:51:34;;;;;;;12.93;4.35;;;;;;;;;;6302390;22;20153;-89
2023/06/13 02:54:39;;;;;;;7.40;3.80;;;;;;;;;;6321959;22;20165;-87
2023/06/13 02:57:46;;;;;;;8.77;4.10;;;;;;;;;;6301587;22;20185;-92
2023/06/13 03:00:53;;;;;;;8.48;3.95;;;;;;;;;;6302578;22;20168;-90
2023/06/13 03:04:00;;;;;;;6.40;3.78;;;;;;;;;;6302732;22;20165;-90
2023/06/13 03:07:05;;;;;;;8.13;4.10;;;;;;;;;;6303083;22;20145;-90
2023/06/13 03:10:11;;;;;;;10.38;4.60;;;;;;;;;;6303200;22;20180;-89
2023/06/13 03:13:19;;;;;;;9.00;4.57;;;;;;;;;;6301854;22;20162;-89
2023/06/13 03:16:27;;;;;;;12.73;4.10;;;;;;;;;;6300408;22;20169;-89
2023/06/13 03:20:06;;;;;;;7.80;3.97;;;;;;;;;;6301706;22;20146;-90
2023/06/13 03:23:14;;;;;;;8.43;3.85;;;;;;;;;;6302518;22;20161;-89
2023/06/13 03:26:19;;;;;;;7.93;3.60;;;;;;;;;;6302041;22;20165;-90
2023/06/13 03:29:25;;;;;;;8.23;3.92;;;;;;;;;;6302633;22;20496;-89
2023/06/13 03:32:32;;;;;;;7.85;3.75;;;;;;;;;;6303721;22;20149;-89
2023/06/13 03:35:38;;;;;;;6.93;3.67;;;;;;;;;;6303507;22;20189;-90
2023/06/13 03:38:44;;;;;;;12.10;3.80;;;;;;;;;;6304843;22;20165;-89
2023/06/13 03:41:50;;;;;;;9.98;3.92;;;;;;;;;;6303974;22;20172;-87
2023/06/13 03:44:55;;;;;;;8.27;3.78;;;;;;;;;;6303172;22;20500;-90
2023/06/13 03:48:02;;;;;;;8.38;3.70;;;;;;;;;;6305255;22;20208;-89
2023/06/13 03:51:07;;;;;;;6.93;3.60;;;;;;;;;;6304695;22;20172;-89
2023/06/13 03:54:12;;;;;;;6.60;3.60;;;;;;;;;;6303952;22;20631;-88
2023/06/13 03:57:20;;;;;;;13.13;5.55;;;;;;;;;;6301627;22;20240;-92
2023/06/13 04:00:25;;;;;;;13.02;4.55;;;;;;;;;;6301915;22;20165;-90
2023/06/13 04:03:35;;;;;;;12.27;4.05;;;;;;;;;;6302051;22;20204;-89
2023/06/13 04:06:41;;;;;;;8.15;3.45;;;;;;;;;;6302243;22;20166;-88
2023/06/13 04:09:47;;;;;;;10.90;3.60;;;;;;;;;;6304475;22;20541;-91
2023/06/13 04:12:51;;;;;;;8.65;3.53;;;;;;;;;;6304884;22;20767;-90
2023/06/13 04:15:56;;;;;;;7.05;3.90;;;;;;;;;;6303621;22;20238;-92
2023/06/13 04:19:03;;;;;;;6.05;3.47;;;;;;;;;;6302405;22;20252;-90
2023/06/13 04:22:09;;;;;;;5.93;3.22;;;;;;;;;;6302113;22;20197;-89
2023/06/13 04:25:15;;;;;;;10.13;3.53;;;;;;;;;;6323163;22;20266;-92
2023/06/13 04:28:21;;;;;;;8.50;3.83;;;;;;;;;;6303958;22;20253;-89
2023/06/13 04:31:26;;;;;;;6.32;3.55;;;;;;;;;;6305936;22;20527;-91
2023/06/13 04:34:39;;;;;;;5.97;3.40;;;;;;;;;;6303717;22;20193;-91
2023/06/13 04:37:45;;;;;;;9.45;3.53;;;;;;;;;;6305871;22;20157;-89
2023/06/13 04:40:51;;;;;;;6.57;3.45;;;;;;;;;;6304310;22;20216;-91
2023/06/13 04:43:57;;;;;;;7.80;3.58;;;;;;;;;;6304453;22;20231;-90
2023/06/13 04:47:02;;;;;;;6.47;3.38;;;;;;;;;;6306063;22;20165;-92
2023/06/13 04:50:09;;;;;;;12.32;3.67;;;;;;;;;;6304900;22;20212;-90
2023/06/13 04:53:15;;;;;;;7.80;3.97;;;;;;;;;;6303876;22;20295;-92
2023/06/13 04:56:21;;;;;;;5.15;3.33;;;;;;;;;;6305639;22;20173;-92
2023/06/13 04:59:27;;;;;;;8.05;3.63;;;;;;;;;;6303884;22;20779;-92
2023/06/13 05:02:34;;;;;;;6.53;3.22;;;;;;;;;;6305920;22;20164;-91
2023/06/13 05:05:41;;;;;;;8.57;3.72;;;;;;;;;;6306728;22;20216;-91
2023/06/13 05:08:48;;;;;;;7.57;3.53;;;;;;;;;;6304766;22;20168;-91
2023/06/13 05:11:56;;;;;;;8.73;3.85;;;;;;;;;;6305870;22;20196;-92
2023/06/13 05:15:02;;;;;;;8.57;3.78;;;;;;;;;;6304365;22;20231;-91
2023/06/13 05:18:13;;;;;;;9.65;3.60;;;;;;;;;;6308047;22;20210;-91
2023/06/13 05:21:20;;;;;;;8.63;4.43;;;;;;;;;;6309671;22;20181;-92
2023/06/13 05:24:26;;;;;;;7.22;3.92;;;;;;;;;;6308372;22;20153;-92
2023/06/13 05:27:33;;;;;;;45.55;5.13;;;;;;;;;;6306939;22;20148;-93
2023/06/13 05:30:39;;;;;;;13.68;4.03;;;;;;;;;;6306848;22;20169;-88
2023/06/13 05:33:44;;;;;;;9.25;4.10;;;;;;;;;;6308265;22;20160;-92
2023/06/13 05:36:57;;;;;;;11.00;3.95;;;;;;;;;;6307528;22;20635;-92
2023/06/13 05:40:09;;;;;;;10.05;4.20;;;;;;;;;;6308433;22;20173;-91
2023/06/13 05:43:19;;;;;;;8.90;4.05;;;;;;;;;;6309381;22;20153;-91
2023/06/13 05:46:25;;;;;;;8.68;3.85;;;;;;;;;;6293973;22;20157;-92
2023/06/13 05:52:53;;;;;;;8.65;3.50;;;;;;;;;;6308152;22;20160;-89
2023/06/13 05:56:38;;;;;;;6.30;3.20;;;;;;;;;;6307250;22;20512;-92
2023/06/13 05:59:51;;;;;;;10.05;3.22;;;;;;;;;;6308604;22;20202;-93
2023/06/13 06:03:01;;;;;;;4.97;2.80;;;;;;;;;;6328356;22;20263;-91
2023/06/13 06:06:14;;;;;;;3.78;2.60;;;;;;;;;;6308226;22;20169;-90
2023/06/13 06:09:22;;;;;;;4.57;3.08;;;;;;;;;;6310593;22;20211;-91
2023/06/13 06:12:28;;;;;;;3.72;2.38;;;;;;;;;;6309138;22;20165;-92
2023/06/13 06:15:34;;;;;;;7.95;2.58;;;;;;;;;;6307303;22;20192;-91
2023/06/13 06:18:41;;;;;;;4.55;2.58;;;;;;;;;;6304351;22;20181;-92
2023/06/13 06:21:46;;;;;;;5.32;2.70;;;;;;;;;;6304673;22;20180;-91
2023/06/13 06:24:53;;;;;;;6.60;2.20;;;;;;;;;;6304749;22;20227;-90
2023/06/13 06:27:58;;;;;;;5.72;2.15;;;;;;;;;;6304137;22;20184;-89
2023/06/13 06:31:05;;;;;;;4.18;1.95;;;;;;;;;;6306535;22;20165;-91
2023/06/13 06:34:10;;;;;;;3.90;1.83;;;;;;;;;;6308518;22;20176;-89
2023/06/13 06:37:15;;;;;;;4.07;2.00;;;;;;;;;;6303423;22;20216;-90
2023/06/13 06:40:22;;;;;;;6.63;1.73;;;;;;;;;;6304289;22;20225;-88
2023/06/13 06:43:27;;;;;;;4.80;1.83;;;;;;;;;;6304635;22;20284;-90
2023/06/13 06:46:33;;;;;;;10.63;2.47;;;;;;;;;;6307629;22;20222;-90
2023/06/13 06:49:38;;;;;;;5.90;1.88;;;;;;;;;;6304335;22;20170;-91
2023/06/13 06:52:44;;;;;;;5.68;2.40;;;;;;;;;;6308685;22;20233;-90
2023/06/13 06:55:56;;;;;;;6.93;2.00;;;;;;;;;;6303523;22;20260;-89
2023/06/13 06:59:03;;;;;;;3.75;2.00;;;;;;;;;;6284799;22;20165;-89
2023/06/13 07:02:08;;;;;;;4.18;2.35;;;;;;;;;;6302347;22;20200;-89
2023/06/13 07:05:15;;;;;;;5.82;2.10;;;;;;;;;;6301273;22;20161;-89
2023/06/13 07:08:21;;;;;;;6.47;2.42;;;;;;;;;;6307403;22;20170;-88
2023/06/13 07:11:32;;;;;;;8.25;2.17;;;;;;;;;;6309987;22;20164;-90
2023/06/13 07:14:39;;;;;;;6.53;1.92;;;;;;;;;;6308929;22;20189;-89
2023/06/13 07:17:46;;;;;;;5.40;2.03;;;;;;;;;;6308960;22;20172;-89
2023/06/13 07:20:53;;;;;;;3.30;1.95;;;;;;;;;;6310016;22;20225;-88
2023/06/13 07:27:20;;;;;;;6.55;2.75;;;;;;;;;;6310428;22;20150;-90
2023/06/13 07:33:52;;;;;;;5.25;2.03;;;;;;;;;;6311244;22;20177;-90
2023/06/13 07:37:02;;;;;;;4.95;1.98;;;;;;;;;;6311422;22;20180;-88
2023/06/13 07:40:13;;;;;;;4.60;1.92;;;;;;;;;;6311773;22;20174;-90
2023/06/13 07:43:21;;;;;;;2.75;1.80;;;;;;;;;;6311264;22;20152;-89
2023/06/13 07:46:27;;;;;;;10.65;1.67;;;;;;;;;;6311529;22;20164;-91
2023/06/13 07:49:33;;;;;;;4.78;1.90;;;;;;;;;;6311395;22;20555;-90
2023/06/13 07:52:39;;;;;;;7.72;1.70;;;;;;;;;;6309937;22;20179;-89
2023/06/13 07:56:08;;;;;;;3.22;1.80;;;;;;;;;;6307777;22;20242;-90
2023/06/13 07:59:15;;;;;;;5.93;2.00;;;;;;;;;;6308068;22;20200;-89
2023/06/13 08:02:20;;;;;;;3.05;1.75;;;;;;;;;;6304807;22;20608;-89
2023/06/13 08:05:26;;;;;;;14.60;2.13;;;;;;;;;;6303336;22;20165;-90
2023/06/13 14:33:22;;;;;;;3.58;2.22;;;;;;;;;;6274503;22;20162;-91
2023/06/13 14:36:28;;;;;;;4.75;2.47;;;;;;;;;;6276459;22;20275;-90
2023/06/13 14:39:38;;;;;;;7.10;2.17;;;;;;;;;;6275478;22;20208;-89
2023/06/13 14:42:46;;;;;;;4.85;2.08;;;;;;;;;;6280422;22;20652;-89
2023/06/13 14:45:53;;;;;;;5.15;2.00;;;;;;;;;;6275572;22;20169;-90
2023/06/13 14:49:00;;;;;;;7.30;2.10;;;;;;;;;;6260059;22;20217;-90
2023/06/13 14:52:07;;;;;;;4.35;2.08;;;;;;;;;;6278407;22;20181;-91
2023/06/13 14:55:13;;;;;;;3.75;2.05;;;;;;;;;;6278104;22;20194;-88
2023/06/13 15:54:56;;;;;;;6.50;2.33;;;;;;;;;;6357550;22;20189;-92
2023/06/13 16:02:24;;;;;;;5.07;2.80;;;;;;;;;;6362072;22;20132;-93
2023/06/13 16:05:30;;;;;;;4.80;2.58;;;;;;;;;;6338141;22;20172;-91
2023/06/13 16:08:36;;;;;;;5.38;2.25;;;;;;;;;;6338369;22;20173;-93
2023/06/13 16:11:47;;;;;;;5.90;3.40;;;;;;;;;;6340419;22;20220;-93
2023/06/13 16:14:53;;;;;;;5.00;2.33;;;;;;;;;;6338370;22;20169;-91
2023/06/13 16:17:59;;;;;;;5.78;2.33;;;;;;;;;;6340635;22;20219;-90
2023/06/13 16:28:02;;;;;;;;;;;;;;;;;;;;;
2023/06/13 16:31:12;;;;;;;7.45;2.10;;;;;;;;;;6340104;22;20183;-91
2023/06/13 16:34:17;;;;;;;4.82;2.45;;;;;;;;;;6334088;22;20180;-92
2023/06/13 16:37:26;;;;;;;4.57;2.30;;;;;;;;;;6337457;22;20180;-93
2023/06/13 16:40:31;;;;;;;6.53;2.92;;;;;;;;;;6336884;22;20241;-90
2023/06/13 16:43:40;;;;;;;9.07;2.97;;;;;;;;;;6337562;22;20144;-90
2023/06/13 16:46:45;;;;;;;4.38;2.10;;;;;;;;;;6337536;22;20165;-92
2023/06/13 16:49:50;;;;;;;3.63;2.17;;;;;;;;;;6336585;22;20164;-91
2023/06/13 16:52:56;;;;;;;3.92;2.22;;;;;;;;;;6337846;22;20274;-91
2023/06/13 16:56:46;;;;;;;3.75;2.17;;;;;;;;;;6337506;22;20211;-93
2023/06/13 16:59:53;;;;;;;6.47;2.50;;;;;;;;;;6337912;22;20157;-91
2023/06/13 17:02:58;;;;;;;3.85;1.92;;;;;;;;;;6336670;22;20200;-91
2023/06/13 17:06:03;;;;;;;4.72;2.30;;;;;;;;;;6337203;22;20163;-90
2023/06/13 17:09:09;;;;;;;5.75;2.20;;;;;;;;;;6336571;22;20168;-93
2023/06/13 17:12:15;;;;;;;5.55;2.30;;;;;;;;;;6336702;22;20156;-93
2023/06/13 17:15:22;;;;;;;5.55;2.20;;;;;;;;;;6337459;22;20178;-93
2023/06/13 17:19:08;;;;;;;6.03;2.22;;;;;;;;;;6335236;22;20156;-92
2023/06/13 17:22:13;;;;;;;4.55;2.30;;;;;;;;;;6336640;22;20156;-91
2023/06/13 17:25:19;;;;;;;4.55;2.30;;;;;;;;;;6337337;22;20259;-91
2023/06/13 17:28:24;;;;;;;6.32;3.00;;;;;;;;;;6336195;22;20164;-91
2023/06/13 17:31:32;;;;;;;11.00;2.40;;;;;;;;;;6337444;22;20187;-93
2023/06/13 17:34:38;;;;;;;5.63;2.17;;;;;;;;;;6336952;22;20160;-91
2023/06/13 17:37:43;;;;;;;4.72;2.30;;;;;;;;;;6320899;22;20164;-92
2023/06/13 17:40:49;;;;;;;4.70;2.28;;;;;;;;;;6337369;22;20168;-92
2023/06/13 17:43:55;;;;;;;6.38;2.28;;;;;;;;;;6338353;22;20219;-92
2023/06/13 17:47:02;;;;;;;11.25;2.17;;;;;;;;;;6337695;22;20173;-91
2023/06/13 17:50:08;;;;;;;5.07;2.33;;;;;;;;;;6338107;22;20171;-92
2023/06/13 17:53:15;;;;;;;5.07;2.33;;;;;;;;;;6338333;22;20207;-92
2023/06/13 17:56:32;;;;;;;5.80;2.22;;;;;;;;;;6338459;22;20459;-91
2023/06/13 17:59:38;;;;;;;7.65;2.33;;;;;;;;;;6338489;22;20171;-92
2023/06/13 18:02:45;;;;;;;17.75;12.13;;;;;;;;;;6338216;22;20229;-91
2023/06/13 18:05:51;;;;;;;4.75;2.30;;;;;;;;;;6340564;22;20218;-92
2023/06/13 18:09:01;;;;;;;7.30;3.33;;;;;;;;;;6340081;22;20214;-92
2023/06/13 18:12:07;;;;;;;4.70;2.50;;;;;;;;;;6338541;22;20152;-92
2023/06/13 18:15:12;;;;;;;6.80;2.58;;;;;;;;;;6339398;22;20143;-92
2023/06/13 18:18:19;;;;;;;4.35;2.30;;;;;;;;;;6340120;22;20169;-91
2023/06/13 18:21:28;;;;;;;5.15;2.30;;;;;;;;;;6338062;22;20163;-92
2023/06/13 18:24:34;;;;;;;5.40;2.65;;;;;;;;;;6339854;22;20211;-91
2023/06/13 18:27:40;;;;;;;8.05;2.42;;;;;;;;;;6338086;22;20152;-92
2023/06/13 18:30:45;;;;;;;4.57;2.22;;;;;;;;;;6336521;22;20167;-92
2023/06/13 18:33:53;;;;;;;4.68;2.70;;;;;;;;;;6336569;22;20164;-90
2023/06/13 18:37:00;;;;;;;4.60;2.90;;;;;;;;;;6339911;22;20183;-93
2023/06/13 18:40:06;;;;;;;11.40;3.42;;;;;;;;;;6339676;22;20189;-91
2023/06/13 18:43:12;;;;;;;10.23;3.90;;;;;;;;;;6338683;22;20176;-93
2023/06/13 18:46:17;;;;;;;8.23;2.80;;;;;;;;;;6339541;22;20157;-92
2023/06/13 18:49:26;;;;;;;4.53;2.85;;;;;;;;;;6339177;22;20160;-92
2023/06/13 18:52:31;;;;;;;5.85;2.60;;;;;;;;;;6338764;22;20165;-91
2023/06/13 18:59:57;;;;;;;4.63;2.38;;;;;;;;;;6357005;22;20168;-92
2023/06/13 19:03:06;;;;;;;7.45;2.45;;;;;;;;;;6338082;22;20164;-92
2023/06/13 19:06:35;;;;;;;5.78;2.30;;;;;;;;;;6339188;22;20219;-92
2023/06/13 19:09:40;;;;;;;5.20;2.58;;;;;;;;;;6339089;22;20148;-93
2023/06/13 19:12:46;;;;;;;7.95;3.72;;;;;;;;;;6339847;22;20207;-92
2023/06/13 19:15:52;;;;;;;5.70;2.20;;;;;;;;;;6339486;22;20148;-93
2023/06/13 19:18:58;;;;;;;5.93;2.50;;;;;;;;;;6338476;22;20215;-92
2023/06/13 19:22:06;;;;;;;6.80;2.60;;;;;;;;;;6338502;22;20168;-89
2023/06/13 19:25:15;;;;;;;3.83;2.22;;;;;;;;;;6335868;22;20171;-89
2023/06/13 19:28:21;;;;;;;7.28;2.70;;;;;;;;;;6334605;22;20500;-91
2023/06/13 19:31:27;;;;;;;8.65;2.50;;;;;;;;;;6354073;22;20168;-91
2023/06/13 19:34:32;;;;;;;10.65;3.70;;;;;;;;;;6334589;22;20608;-90
2023/06/13 19:37:39;;;;;;;7.47;3.08;;;;;;;;;;6337354;22;20187;-93
2023/06/13 19:40:44;;;;;;;11.32;2.90;;;;;;;;;;6333491;22;20259;-91
2023/06/13 19:43:51;;;;;;;4.70;2.60;;;;;;;;;;6339366;22;20168;-92
2023/06/13 19:46:56;;;;;;;9.02;3.45;;;;;;;;;;6338092;22;20168;-91
2023/06/13 19:50:02;;;;;;;8.68;3.70;;;;;;;;;;6338125;22;20199;-94
2023/06/13 19:53:09;;;;;;;6.75;4.38;;;;;;;;;;6338209;22;20242;-93
2023/06/13 19:56:45;;;;;;;4.43;2.58;;;;;;;;;;6337111;22;20197;-93
2023/06/13 19:59:51;;;;;;;5.20;2.60;;;;;;;;;;6338725;22;20207;-92
2023/06/13 20:02:57;;;;;;;5.80;2.88;;;;;;;;;;6336422;22;20207;-92
2023/06/13 20:06:06;;;;;;;6.03;2.58;;;;;;;;;;6339053;22;20156;-92
2023/06/13 20:09:12;;;;;;;6.40;3.03;;;;;;;;;;6319986;22;20237;-92
2023/06/13 20:12:18;;;;;;;10.95;4.03;;;;;;;;;;6338700;22;20188;-93
2023/06/13 20:15:24;;;;;;;4.97;2.90;;;;;;;;;;6343254;22;20164;-92
2023/06/13 20:18:57;;;;;;;7.05;2.80;;;;;;;;;;6339789;22;20187;-96
2023/06/13 20:22:03;;;;;;;6.78;2.80;;;;;;;;;;6338282;22;20160;-93
2023/06/13 20:25:10;;;;;;;8.13;3.25;;;;;;;;;;6338461;22;20157;-94
2023/06/13 20:28:16;;;;;;;5.18;3.15;;;;;;;;;;6337319;22;20168;-92
2023/06/13 20:31:22;;;;;;;6.18;3.30;;;;;;;;;;6338589;22;20187;-92
2023/06/13 20:34:29;;;;;;;5.68;3.03;;;;;;;;;;6338704;22;20534;-93
2023/06/13 20:37:34;;;;;;;9.40;2.72;;;;;;;;;;6337288;22;20230;-93
2023/06/13 20:40:41;;;;;;;6.75;3.03;;;;;;;;;;6335589;22;20169;-92
2023/06/13 20:43:46;;;;;;;7.38;3.10;;;;;;;;;;6337401;22;20160;-94
2023/06/13 20:46:52;;;;;;;6.78;3.45;;;;;;;;;;6336312;22;20171;-92
2023/06/13 20:49:58;;;;;;;9.18;3.15;;;;;;;;;;6336540;22;20164;-95
2023/06/13 20:53:03;;;;;;;8.15;3.72;;;;;;;;;;6336739;22;20192;-93
2023/06/13 21:00:13;;;;;;;6.05;3.08;;;;;;;;;;6336226;22;20157;-95
2023/06/13 21:03:19;;;;;;;7.20;3.28;;;;;;;;;;6335453;22;20164;-93
2023/06/13 21:06:26;;;;;;;8.63;3.60;;;;;;;;;;6334667;22;20149;-94
2023/06/13 21:09:31;;;;;;;8.38;3.45;;;;;;;;;;6336335;22;20153;-93
2023/06/13 21:12:40;;;;;;;7.75;3.10;;;;;;;;;;6336426;22;20168;-93
2023/06/13 21:15:48;;;;;;;5.32;3.10;;;;;;;;;;6336170;22;20235;-94
2023/06/13 21:18:56;;;;;;;9.55;3.38;;;;;;;;;;6336936;22;20176;-93
2023/06/13 21:22:01;;;;;;;7.53;2.90;;;;;;;;;;6335419;22;20240;-93
2023/06/13 21:25:09;;;;;;;7.03;2.78;;;;;;;;;;6335694;22;20148;-93
2023/06/13 21:28:15;;;;;;;9.15;3.17;;;;;;;;;;6336459;22;20156;-91
2023/06/13 21:31:22;;;;;;;6.75;2.92;;;;;;;;;;6336358;22;20168;-93
2023/06/13 21:34:27;;;;;;;6.47;3.28;;;;;;;;;;6336781;22;20205;-92
2023/06/13 21:37:34;;;;;;;6.65;3.10;;;;;;;;;;6334720;22;20196;-93
2023/06/13 21:40:39;;;;;;;9.68;3.88;;;;;;;;;;6336149;22;20189;-94
2023/06/13 21:43:45;;;;;;;8.23;4.32;;;;;;;;;;6336153;22;20183;-94
2023/06/13 21:46:52;;;;;;;7.10;3.38;;;;;;;;;;6335372;22;20190;-94
2023/06/13 21:49:58;;;;;;;7.70;3.90;;;;;;;;;;6334535;22;20176;-94
2023/06/13 21:53:03;;;;;;;8.45;4.38;;;;;;;;;;6335035;22;20248;-94
2023/06/13 21:56:08;;;;;;;9.43;4.25;;;;;;;;;;6334386;22;20153;-91
2023/06/13 21:59:13;;;;;;;8.77;3.55;;;;;;;;;;6336936;22;20157;-94
2023/06/13 22:02:29;;;;;;;8.90;3.75;;;;;;;;;;6336706;22;20215;-92
2023/06/13 22:05:35;;;;;;;7.78;3.55;;;;;;;;;;6340357;22;20183;-91
2023/06/13 22:08:40;;;;;;;9.25;3.85;;;;;;;;;;6338616;22;20206;-94
2023/06/13 22:11:46;;;;;;;6.32;3.38;;;;;;;;;;6336955;22;20152;-93
2023/06/13 22:14:52;;;;;;;8.30;3.42;;;;;;;;;;6337292;22;20165;-92
2023/06/13 22:18:01;;;;;;;7.82;3.03;;;;;;;;;;6337467;22;20652;-90
2023/06/13 22:21:10;;;;;;;6.97;3.45;;;;;;;;;;6338024;22;20164;-92
2023/06/13 23:49:19;;;;;;;9.18;3.97;;;;;;;;;;6266977;22;20214;-91
2023/06/13 23:52:25;;;;;;;10.30;4.00;;;;;;;;;;6304446;22;20165;-91
2023/06/13 23:59:02;;;;;;;7.68;3.90;;;;;;;;;;6304598;22;20193;-92
